createdAt,value
2023-05-13T00:00:51.844Z,6.53
2023-05-13T00:03:23.737Z,8.73
2023-05-13T00:05:53.303Z,8.80
2023-05-13T00:08:22.948Z,6.97
2023-05-13T00:10:58.438Z,8.80
2023-05-13T00:13:32.909Z,6.75
2023-05-13T00:16:07.498Z,6.70
2023-05-13T00:18:42.023Z,8.52
2023-05-13T00:21:11.638Z,11.27
2023-05-13T00:23:43.481Z,9.60
2023-05-13T00:26:13.287Z,8.23
2023-05-13T00:28:44.258Z,7.75
2023-05-13T00:31:19.491Z,8.07
2023-05-13T00:33:51.018Z,7.50
2023-05-13T00:36:26.350Z,7.43
2023-05-13T00:38:59.459Z,7.90
2023-05-13T00:41:32.761Z,8.43
2023-05-13T00:44:08.217Z,7.50
2023-05-13T00:46:39.015Z,5.90
2023-05-13T00:49:11.388Z,7.18
2023-05-13T00:51:46.042Z,6.75
2023-05-13T00:54:18.872Z,8.95
2023-05-13T00:56:57.332Z,7.43
2023-05-13T00:59:35.095Z,8.20
2023-05-13T01:02:27.221Z,6.65
2023-05-13T01:05:22.313Z,7.80
2023-05-13T01:08:14.616Z,7.65
2023-05-13T01:11:06.566Z,6.20
2023-05-13T01:13:43.821Z,6.80
2023-05-13T01:16:28.382Z,8.23
2023-05-13T01:19:13.855Z,6.95
2023-05-13T01:21:56.357Z,8.80
2023-05-13T01:24:25.989Z,6.18
2023-05-13T01:26:56.082Z,6.82
2023-05-13T01:29:28.548Z,7.32
2023-05-13T01:32:02.016Z,6.05
2023-05-13T01:34:37.634Z,6.78
2023-05-13T01:37:11.340Z,7.13
2023-05-13T01:39:44.294Z,7.18
2023-05-13T01:42:17.029Z,8.43
2023-05-13T01:44:46.453Z,7.55
2023-05-13T01:47:22.625Z,7.15
2023-05-13T01:49:57.628Z,7.03
2023-05-13T01:52:29.318Z,5.13
2023-05-13T01:55:06.467Z,6.07
2023-05-13T01:57:43.783Z,5.68
2023-05-13T02:00:16.416Z,8.00
2023-05-13T02:02:45.482Z,7.55
2023-05-13T02:05:17.308Z,6.65
2023-05-13T02:07:48.775Z,5.90
2023-05-13T02:10:20.409Z,6.03
2023-05-13T02:12:56.741Z,6.60
2023-05-13T02:15:36.416Z,5.80
2023-05-13T02:18:16.336Z,7.10
2023-05-13T02:21:07.881Z,7.10
2023-05-13T02:23:38.068Z,6.15
2023-05-13T02:26:13.873Z,7.20
2023-05-13T02:28:47.167Z,5.78
2023-05-13T02:31:21.376Z,5.47
2023-05-13T02:33:56.278Z,5.40
2023-05-13T02:36:26.013Z,5.78
2023-05-13T02:39:06.805Z,8.05
2023-05-13T02:44:18.991Z,7.18
2023-05-13T02:46:52.001Z,6.55
2023-05-13T02:49:24.099Z,6.68
2023-05-13T02:51:56.769Z,5.90
2023-05-13T02:54:36.177Z,6.05
2023-05-13T02:57:09.414Z,8.15
2023-05-13T02:59:48.848Z,6.93
2023-05-13T03:02:28.541Z,5.25
2023-05-13T03:07:33.488Z,5.82
2023-05-13T03:10:07.475Z,4.53
2023-05-13T03:12:40.004Z,6.53
2023-05-13T03:15:12.867Z,5.53
2023-05-13T03:17:46.107Z,5.13
2023-05-13T03:20:18.505Z,6.53
2023-05-13T03:22:48.639Z,6.38
2023-05-13T03:25:18.700Z,7.32
2023-05-13T03:27:53.328Z,5.72
2023-05-13T03:30:26.976Z,7.35
2023-05-13T03:33:08.526Z,6.75
2023-05-13T03:38:12.659Z,5.75
2023-05-13T03:40:48.992Z,5.35
2023-05-13T03:43:22.147Z,5.03
2023-05-13T03:46:00.486Z,4.97
2023-05-13T03:48:31.181Z,4.30
2023-05-13T03:51:05.688Z,6.15
2023-05-13T03:53:34.666Z,5.82
2023-05-13T03:56:03.435Z,6.85
2023-05-13T03:58:35.220Z,6.15
2023-05-13T04:01:10.939Z,6.88
2023-05-13T04:03:45.961Z,7.35
2023-05-13T04:06:28.004Z,5.35
2023-05-13T04:09:01.735Z,7.50
2023-05-13T04:11:35.793Z,5.63
2023-05-13T04:14:07.040Z,5.28
2023-05-13T04:16:38.911Z,6.43
2023-05-13T04:19:10.532Z,6.60
2023-05-13T04:21:48.290Z,7.28
2023-05-13T04:24:19.887Z,6.78
2023-05-13T04:26:54.181Z,6.82
2023-05-13T04:29:27.044Z,6.85
2023-05-13T04:31:57.131Z,7.68
2023-05-13T04:34:31.778Z,7.25
2023-05-13T04:37:03.837Z,5.38
2023-05-13T04:39:35.376Z,6.47
2023-05-13T04:42:10.692Z,6.20
2023-05-13T04:44:44.404Z,6.03
2023-05-13T04:47:14.017Z,5.45
2023-05-13T04:49:45.074Z,6.68
2023-05-13T04:52:20.310Z,6.93
2023-05-13T04:54:53.832Z,8.02
2023-05-13T04:57:30.114Z,10.80
2023-05-13T05:00:06.179Z,7.10
2023-05-13T05:02:43.520Z,8.38
2023-05-13T05:05:18.569Z,5.07
2023-05-13T05:07:54.477Z,6.88
2023-05-13T05:10:24.864Z,7.82
2023-05-13T05:12:58.836Z,8.85
2023-05-13T05:15:33.395Z,6.85
2023-05-13T05:18:07.062Z,6.80
2023-05-13T05:20:41.717Z,7.15
2023-05-13T05:23:24.021Z,6.97
2023-05-13T05:26:04.377Z,6.60
2023-05-13T05:28:40.681Z,8.30
2023-05-13T05:31:15.161Z,7.80
2023-05-13T05:33:44.988Z,7.07
2023-05-13T05:36:16.776Z,11.40
2023-05-13T05:38:48.817Z,7.13
2023-05-13T05:41:20.677Z,6.53
2023-05-13T05:43:55.392Z,7.68
2023-05-13T05:46:24.739Z,6.82
2023-05-13T05:48:59.329Z,7.65
2023-05-13T05:51:29.324Z,8.80
2023-05-13T05:53:58.492Z,9.05
2023-05-13T05:56:30.852Z,9.85
2023-05-13T05:59:02.107Z,9.98
2023-05-13T06:01:37.421Z,5.93
2023-05-13T06:04:08.930Z,7.50
2023-05-13T06:06:39.938Z,6.40
2023-05-13T06:09:11.666Z,11.15
2023-05-13T06:11:45.406Z,6.93
2023-05-13T06:14:17.641Z,5.55
2023-05-13T06:16:51.505Z,8.48
2023-05-13T06:19:23.806Z,6.68
2023-05-13T06:21:57.751Z,6.30
2023-05-13T06:24:29.463Z,6.63
2023-05-13T06:27:09.709Z,7.90
2023-05-13T06:29:40.950Z,6.25
2023-05-13T06:32:12.121Z,6.20
2023-05-13T06:34:47.612Z,7.20
2023-05-13T06:37:20.270Z,6.28
2023-05-13T06:39:52.364Z,6.45
2023-05-13T06:42:26.392Z,6.88
2023-05-13T06:45:08.903Z,6.57
2023-05-13T06:47:45.585Z,9.13
2023-05-13T06:50:14.480Z,5.93
2023-05-13T06:52:48.727Z,8.40
2023-05-13T06:55:20.346Z,7.32
2023-05-13T06:57:53.674Z,6.93
2023-05-13T07:00:25.881Z,8.55
2023-05-13T07:02:58.061Z,6.72
2023-05-13T07:05:36.065Z,7.50
2023-05-13T07:08:09.117Z,6.50
2023-05-13T07:10:38.889Z,8.00
2023-05-13T07:13:13.431Z,7.00
2023-05-13T07:15:47.921Z,7.93
2023-05-13T07:18:21.358Z,5.90
2023-05-13T07:20:50.199Z,9.30
2023-05-13T07:23:22.824Z,9.27
2023-05-13T07:25:57.799Z,9.32
2023-05-13T07:28:35.632Z,6.32
2023-05-13T07:31:59.716Z,11.50
2023-05-13T07:34:34.159Z,8.70
2023-05-13T07:37:06.604Z,6.72
2023-05-13T07:42:09.842Z,8.23
2023-05-13T07:44:41.183Z,6.68
2023-05-13T07:47:14.398Z,7.45
2023-05-13T07:49:46.842Z,9.45
2023-05-13T07:52:24.870Z,8.63
2023-05-13T07:54:59.076Z,8.10
2023-05-13T07:57:31.433Z,9.82
2023-05-13T08:00:03.743Z,7.07
2023-05-13T08:02:44.396Z,11.07
2023-05-13T08:05:18.475Z,8.52
2023-05-13T08:07:52.884Z,8.30
2023-05-13T08:10:30.262Z,6.57
2023-05-13T08:13:05.112Z,8.35
2023-05-13T08:15:37.671Z,7.30
2023-05-13T08:18:12.405Z,9.95
2023-05-13T08:20:44.525Z,9.15
2023-05-13T08:23:16.600Z,9.63
2023-05-13T08:25:48.418Z,8.82
2023-05-13T08:28:18.181Z,9.02
2023-05-13T08:30:52.843Z,8.93
2023-05-13T08:33:22.852Z,9.05
2023-05-13T08:35:55.070Z,6.85
2023-05-13T08:38:27.836Z,8.88
2023-05-13T08:40:58.557Z,8.77
2023-05-13T08:43:33.217Z,9.55
2023-05-13T08:46:07.540Z,8.00
2023-05-13T08:48:42.174Z,8.60
2023-05-13T08:51:13.912Z,7.57
2023-05-13T08:53:54.383Z,8.65
2023-05-13T08:56:26.203Z,10.73
2023-05-13T08:58:56.255Z,7.82
2023-05-13T09:01:28.072Z,9.82
2023-05-13T09:04:03.110Z,12.23
2023-05-13T09:06:36.589Z,9.75
2023-05-13T09:09:14.783Z,8.13
2023-05-13T09:11:51.014Z,9.68
2023-05-13T09:14:21.495Z,10.23
2023-05-13T09:16:58.136Z,9.35
2023-05-13T09:19:29.075Z,10.25
2023-05-13T09:21:59.268Z,8.50
2023-05-13T09:24:34.041Z,9.02
2023-05-13T09:27:03.721Z,10.82
2023-05-13T09:29:43.768Z,8.38
2023-05-13T09:32:16.659Z,8.68
2023-05-13T09:34:49.739Z,8.60
2023-05-13T09:37:24.403Z,8.90
2023-05-13T09:39:56.154Z,8.43
2023-05-13T09:42:26.014Z,8.82
2023-05-13T09:45:04.968Z,8.00
2023-05-13T09:47:37.652Z,10.70
2023-05-13T09:50:13.833Z,7.95
2023-05-13T09:55:16.750Z,7.97
2023-05-13T10:00:32.736Z,9.55
2023-05-13T10:03:06.712Z,8.30
2023-05-13T10:05:42.043Z,7.93
2023-05-13T10:08:16.089Z,7.78
2023-05-13T10:10:55.220Z,8.63
2023-05-13T10:13:29.820Z,9.27
2023-05-13T10:16:05.485Z,9.32
2023-05-13T10:18:38.951Z,9.27
2023-05-13T10:21:23.978Z,7.32
2023-05-13T10:24:03.408Z,9.98
2023-05-13T10:26:37.973Z,9.57
2023-05-13T10:29:11.389Z,9.15
2023-05-13T10:31:44.843Z,9.00
2023-05-13T10:34:15.023Z,10.35
2023-05-13T10:37:02.540Z,10.18
2023-05-13T10:40:07.856Z,14.50
2023-05-13T10:42:45.050Z,8.45
2023-05-13T10:45:20.111Z,8.20
2023-05-13T10:48:01.547Z,8.70
2023-05-13T10:53:10.807Z,8.73
2023-05-13T10:55:49.821Z,8.55
2023-05-13T10:58:22.976Z,9.73
2023-05-13T11:01:28.932Z,7.25
2023-05-13T11:04:41.212Z,8.50
2023-05-13T11:07:19.544Z,6.57
2023-05-13T11:09:54.671Z,9.68
2023-05-13T11:12:29.598Z,8.57
2023-05-13T11:15:00.217Z,7.95
2023-05-13T11:17:34.914Z,7.13
2023-05-13T11:20:07.881Z,8.32
2023-05-13T11:22:42.683Z,8.52
2023-05-13T11:25:15.235Z,9.75
2023-05-13T11:27:52.821Z,9.90
2023-05-13T11:30:27.957Z,7.95
2023-05-13T11:33:09.074Z,10.63
2023-05-13T11:35:42.474Z,7.70
2023-05-13T11:38:24.949Z,9.73
2023-05-13T11:40:57.574Z,8.05
2023-05-13T11:43:31.180Z,7.00
2023-05-13T11:46:08.544Z,8.52
2023-05-13T11:48:40.430Z,6.50
2023-05-13T11:51:16.727Z,5.28
2023-05-13T11:53:46.375Z,7.35
2023-05-13T11:56:18.822Z,6.85
2023-05-13T11:58:53.802Z,6.70
2023-05-13T12:01:25.537Z,7.32
2023-05-13T12:04:05.226Z,7.70
2023-05-13T12:06:45.323Z,7.18
2023-05-13T12:09:19.409Z,10.05
2023-05-13T12:11:55.892Z,7.47
2023-05-13T12:14:29.451Z,7.63
2023-05-13T12:17:02.497Z,6.85
2023-05-13T12:19:37.958Z,6.18
2023-05-13T12:22:10.190Z,8.13
2023-05-13T12:24:42.019Z,7.38
2023-05-13T12:27:18.986Z,6.35
2023-05-13T12:29:50.452Z,6.68
2023-05-13T12:32:22.855Z,6.38
2023-05-13T12:34:55.742Z,6.53
2023-05-13T12:37:30.473Z,5.75
2023-05-13T12:40:14.402Z,9.35
2023-05-13T12:42:49.419Z,7.03
2023-05-13T12:45:26.721Z,6.90
2023-05-13T12:48:03.000Z,8.32
2023-05-13T12:50:41.877Z,7.20
2023-05-13T12:53:14.912Z,6.45
2023-05-13T12:55:49.209Z,6.13
2023-05-13T12:58:22.801Z,6.70
2023-05-13T13:00:54.711Z,9.20
2023-05-13T13:03:24.742Z,7.18
2023-05-13T13:05:58.701Z,7.95
2023-05-13T13:08:34.421Z,8.20
2023-05-13T13:11:07.010Z,8.13
2023-05-13T13:16:20.582Z,7.03
2023-05-13T13:18:57.350Z,6.35
2023-05-13T13:21:35.941Z,5.35
2023-05-13T13:24:11.364Z,6.40
2023-05-13T13:26:42.702Z,6.97
2023-05-13T13:29:16.509Z,5.93
2023-05-13T13:31:53.610Z,8.23
2023-05-13T13:34:22.751Z,6.95
2023-05-13T13:36:52.130Z,7.07
2023-05-13T13:39:28.166Z,7.38
2023-05-13T13:41:57.867Z,5.97
2023-05-13T13:44:29.954Z,7.63
2023-05-13T13:47:02.383Z,6.38
2023-05-13T13:49:33.494Z,6.10
2023-05-13T13:52:05.259Z,7.13
2023-05-13T13:54:36.951Z,6.18
2023-05-13T13:57:06.585Z,7.80
2023-05-13T13:59:40.790Z,7.82
2023-05-13T14:02:10.535Z,6.95
2023-05-13T14:04:40.230Z,6.78
2023-05-13T14:07:11.492Z,6.57
2023-05-13T14:09:40.398Z,6.70
2023-05-13T14:12:11.454Z,7.10
2023-05-13T14:14:45.304Z,6.18
2023-05-13T14:17:16.357Z,9.30
2023-05-13T14:19:52.232Z,7.50
2023-05-13T14:22:25.907Z,7.43
2023-05-13T14:25:01.889Z,8.77
2023-05-13T14:27:34.571Z,8.05
2023-05-13T14:30:04.642Z,9.52
2023-05-13T14:32:34.971Z,9.30
2023-05-13T14:35:06.678Z,6.20
2023-05-13T14:37:39.097Z,6.13
2023-05-13T14:40:09.413Z,6.47
2023-05-13T14:42:41.440Z,6.75
2023-05-13T14:45:18.378Z,9.55
2023-05-13T14:47:54.332Z,7.85
2023-05-13T14:50:31.173Z,8.25
2023-05-13T14:53:05.335Z,9.57
2023-05-13T14:55:36.857Z,8.90
2023-05-13T14:58:10.881Z,10.98
2023-05-13T15:00:40.315Z,9.93
2023-05-13T15:03:13.940Z,15.20
2023-05-13T15:05:47.635Z,12.23
2023-05-13T15:08:19.833Z,16.08
2023-05-13T15:10:53.513Z,14.80
2023-05-13T15:13:27.236Z,13.23
2023-05-13T15:16:01.183Z,12.27
2023-05-13T15:18:34.690Z,14.35
2023-05-13T15:23:34.383Z,12.07
2023-05-13T15:26:04.138Z,13.13
2023-05-13T15:28:37.153Z,15.38
2023-05-13T15:31:12.369Z,13.80
2023-05-13T15:33:45.284Z,16.40
2023-05-13T15:36:20.328Z,16.02
2023-05-13T15:39:01.650Z,14.90
2023-05-13T15:41:38.296Z,14.45
2023-05-13T15:44:13.705Z,12.65
2023-05-13T15:46:48.881Z,12.25
2023-05-13T15:49:22.704Z,12.07
2023-05-13T15:54:27.569Z,16.45
2023-05-13T15:57:00.871Z,14.88
2023-05-13T15:59:35.270Z,16.15
2023-05-13T16:02:10.412Z,18.38
2023-05-13T16:04:45.069Z,15.30
2023-05-13T16:07:15.432Z,16.90
2023-05-13T16:09:46.200Z,10.95
2023-05-13T16:12:16.285Z,12.40
2023-05-13T16:14:46.299Z,13.73
2023-05-13T16:17:19.603Z,14.73
2023-05-13T16:19:57.753Z,12.27
2023-05-13T16:22:38.428Z,11.57
2023-05-13T16:25:12.305Z,12.95
2023-05-13T16:27:43.558Z,13.13
2023-05-13T16:30:15.354Z,20.77
2023-05-13T16:32:58.018Z,14.10
2023-05-13T16:35:29.438Z,13.90
2023-05-13T16:38:06.758Z,13.88
2023-05-13T16:40:40.580Z,11.65
2023-05-13T16:43:10.468Z,14.07
2023-05-13T16:45:40.384Z,12.32
2023-05-13T16:48:12.226Z,13.48
2023-05-13T16:50:41.669Z,14.45
2023-05-13T16:53:13.218Z,15.55
2023-05-13T16:55:47.935Z,14.18
2023-05-13T16:58:19.372Z,13.75
2023-05-13T17:00:55.586Z,12.20
2023-05-13T17:03:28.565Z,11.48
2023-05-13T17:06:00.671Z,13.93
2023-05-13T17:08:29.981Z,18.30
2023-05-13T17:11:01.474Z,15.15
2023-05-13T17:13:30.660Z,13.30
2023-05-13T17:16:06.622Z,16.15
2023-05-13T17:18:38.787Z,16.50
2023-05-13T17:21:11.607Z,16.42
2023-05-13T17:23:43.654Z,16.70
2023-05-13T17:26:20.498Z,15.82
2023-05-13T17:28:50.863Z,22.13
2023-05-13T17:31:20.706Z,23.30
2023-05-13T17:33:56.654Z,23.60
2023-05-13T17:36:29.806Z,21.55
2023-05-13T17:39:02.415Z,23.85
2023-05-13T17:41:35.030Z,21.15
2023-05-13T17:44:09.796Z,21.75
2023-05-13T17:46:45.258Z,28.00
2023-05-13T17:49:22.518Z,26.88
2023-05-13T17:51:57.266Z,23.58
2023-05-13T17:54:29.488Z,27.13
2023-05-13T17:57:01.838Z,22.35
2023-05-13T17:59:36.972Z,24.73
2023-05-13T18:02:11.889Z,22.73
2023-05-13T18:07:16.318Z,22.42
2023-05-13T18:09:54.596Z,26.20
2023-05-13T18:12:28.622Z,23.30
2023-05-13T18:14:58.486Z,25.33
2023-05-13T18:17:30.915Z,19.90
2023-05-13T18:20:06.478Z,20.45
2023-05-13T18:22:42.063Z,21.13
2023-05-13T18:25:17.026Z,19.52
2023-05-13T18:27:51.011Z,22.42
2023-05-13T18:30:22.172Z,26.52
2023-05-13T18:32:58.108Z,23.88
2023-05-13T18:35:30.571Z,23.67
2023-05-13T18:38:03.557Z,20.50
2023-05-13T18:40:42.396Z,21.40
2023-05-13T18:43:15.610Z,20.70
2023-05-13T18:45:48.327Z,21.30
2023-05-13T18:48:18.328Z,37.35
2023-05-13T18:50:48.627Z,29.55
2023-05-13T18:53:23.993Z,28.45
2023-05-13T18:55:56.886Z,33.00
2023-05-13T18:58:33.043Z,30.48
2023-05-13T19:01:08.612Z,27.77
2023-05-13T19:03:44.899Z,33.42
2023-05-13T19:06:17.513Z,28.77
2023-05-13T19:08:52.793Z,28.50
2023-05-13T19:11:27.535Z,29.08
2023-05-13T19:14:03.134Z,31.90
2023-05-13T19:16:39.995Z,32.80
2023-05-13T19:19:16.280Z,31.40
2023-05-13T19:21:54.052Z,27.00
2023-05-13T19:24:31.287Z,28.85
2023-05-13T19:27:01.780Z,25.13
2023-05-13T19:29:32.314Z,25.73
2023-05-13T19:32:02.989Z,25.42
2023-05-13T19:34:37.154Z,26.90
2023-05-13T19:37:12.096Z,29.38
2023-05-13T19:39:44.195Z,33.15
2023-05-13T19:42:15.460Z,20.17
2023-05-13T19:44:45.642Z,23.10
2023-05-13T19:47:20.276Z,23.40
2023-05-13T19:49:57.503Z,20.42
2023-05-13T19:52:30.113Z,23.77
2023-05-13T19:55:02.405Z,30.05
2023-05-13T19:57:38.130Z,32.17
2023-05-13T20:00:17.471Z,25.20
2023-05-13T20:02:47.049Z,23.92
2023-05-13T20:07:56.331Z,22.55
2023-05-13T20:10:31.920Z,22.30
2023-05-13T20:13:04.295Z,20.45
2023-05-13T20:15:36.983Z,23.65
2023-05-13T20:18:08.962Z,23.63
2023-05-13T20:20:47.566Z,33.85
2023-05-13T20:23:19.803Z,30.55
2023-05-13T20:25:52.920Z,25.48
2023-05-13T20:28:25.635Z,26.05
2023-05-13T20:30:57.726Z,30.38
2023-05-13T20:33:32.774Z,31.90
2023-05-13T20:36:06.876Z,39.47
2023-05-13T20:38:39.549Z,38.63
2023-05-13T20:41:10.942Z,32.10
2023-05-13T20:43:42.480Z,26.00
2023-05-13T20:46:15.290Z,28.60
2023-05-13T20:48:48.787Z,25.43
2023-05-13T20:51:20.358Z,20.50
2023-05-13T20:53:54.411Z,21.25
2023-05-13T20:56:31.608Z,23.50
2023-05-13T20:59:05.873Z,21.52
2023-05-13T21:01:36.007Z,27.98
2023-05-13T21:04:08.090Z,31.30
2023-05-13T21:06:39.538Z,27.30
2023-05-13T21:09:13.376Z,28.02
2023-05-13T21:11:42.648Z,27.92
2023-05-13T21:14:16.447Z,33.60
2023-05-13T21:16:49.936Z,27.25
2023-05-13T21:19:28.268Z,27.52
2023-05-13T21:21:57.335Z,27.50
2023-05-13T21:24:32.591Z,26.02
2023-05-13T21:27:05.037Z,28.33
2023-05-13T21:29:35.300Z,28.17
2023-05-13T21:32:13.782Z,24.95
2023-05-13T21:34:48.471Z,23.10
2023-05-13T21:37:21.048Z,23.45
2023-05-13T21:39:53.103Z,27.17
2023-05-13T21:42:32.052Z,25.20
2023-05-13T21:45:51.478Z,20.98
2023-05-13T21:48:20.720Z,22.35
2023-05-13T21:50:58.382Z,22.90
2023-05-13T21:53:34.860Z,24.92
2023-05-13T21:56:06.000Z,22.95
2023-05-13T21:58:40.121Z,24.00
2023-05-13T22:01:12.367Z,22.27
2023-05-13T22:03:42.575Z,25.48
2023-05-13T22:06:11.456Z,26.52
2023-05-13T22:08:43.487Z,24.13
2023-05-13T22:11:15.927Z,24.92
2023-05-13T22:13:49.538Z,21.30
2023-05-13T22:16:24.188Z,23.48
2023-05-13T22:19:00.858Z,23.88
2023-05-13T22:21:40.503Z,29.35
2023-05-13T22:24:15.554Z,22.15
2023-05-13T22:26:47.164Z,23.90
2023-05-13T22:29:19.073Z,22.98
2023-05-13T22:31:48.823Z,20.90
2023-05-13T22:34:20.704Z,18.85
2023-05-13T22:37:02.053Z,22.40
2023-05-13T22:39:36.771Z,19.95
2023-05-13T22:42:15.318Z,21.83
2023-05-13T22:44:44.976Z,22.08
2023-05-13T22:47:19.575Z,23.65
2023-05-13T22:49:54.830Z,21.20
2023-05-13T22:52:27.507Z,23.38
2023-05-13T22:54:59.232Z,19.45
2023-05-13T22:57:30.876Z,19.27
2023-05-13T23:00:09.494Z,22.58
2023-05-13T23:02:42.654Z,18.45
2023-05-13T23:05:15.284Z,22.80
2023-05-13T23:07:47.184Z,21.10
2023-05-13T23:10:24.111Z,19.35
2023-05-13T23:12:56.656Z,18.65
2023-05-13T23:15:29.430Z,19.63
2023-05-13T23:18:01.522Z,18.42
2023-05-13T23:20:35.743Z,16.40
2023-05-13T23:23:12.419Z,18.10
2023-05-13T23:25:48.606Z,17.30
2023-05-13T23:28:22.988Z,16.40
2023-05-13T23:30:57.783Z,14.93
2023-05-13T23:33:30.222Z,22.80
2023-05-13T23:36:02.838Z,17.33
2023-05-13T23:38:36.883Z,20.70
2023-05-13T23:41:08.242Z,15.90
2023-05-13T23:43:40.302Z,17.50
2023-05-13T23:46:12.157Z,15.98
2023-05-13T23:48:47.430Z,13.40
2023-05-13T23:51:20.527Z,17.27
2023-05-13T23:53:51.286Z,11.95
2023-05-13T23:56:27.899Z,15.77
2023-05-13T23:59:01.571Z,15.35
